sensor_id;sensor_type;location;lat;lon;timestamp;P1;durP1;ratioP1;P2;durP2;ratioP2
20154;SDS011;10238;49.556;10.956;2023-02-28T00:01:10;3.70;;;3.40;;
20154;SDS011;10238;49.556;10.956;2023-02-28T00:03:58;4.97;;;3.35;;
20154;SDS011;10238;49.556;10.956;2023-02-28T00:06:46;5.38;;;3.08;;
20154;SDS011;10238;49.556;10.956;2023-02-28T00:09:34;4.93;;;3.30;;
20154;SDS011;10238;49.556;10.956;2023-02-28T00:12:24;5.28;;;3.50;;
20154;SDS011;10238;49.556;10.956;2023-02-28T00:15:13;4.32;;;3.05;;
20154;SDS011;10238;49.556;10.956;2023-02-28T00:18:02;4.18;;;3.10;;
20154;SDS011;10238;49.556;10.956;2023-02-28T00:20:50;5.35;;;3.08;;
20154;SDS011;10238;49.556;10.956;2023-02-28T00:23:40;4.97;;;2.90;;
20154;SDS011;10238;49.556;10.956;2023-02-28T00:26:28;4.90;;;3.13;;
20154;SDS011;10238;49.556;10.956;2023-02-28T00:29:17;5.70;;;3.47;;
20154;SDS011;10238;49.556;10.956;2023-02-28T00:32:05;4.38;;;3.42;;
20154;SDS011;10238;49.556;10.956;2023-02-28T00:34:54;5.10;;;3.53;;
20154;SDS011;10238;49.556;10.956;2023-02-28T00:37:42;4.75;;;3.25;;
20154;SDS011;10238;49.556;10.956;2023-02-28T00:40:30;5.63;;;3.70;;
20154;SDS011;10238;49.556;10.956;2023-02-28T00:43:18;5.18;;;3.45;;
20154;SDS011;10238;49.556;10.956;2023-02-28T00:46:07;7.20;;;3.95;;
20154;SDS011;10238;49.556;10.956;2023-02-28T00:48:55;4.75;;;3.10;;
20154;SDS011;10238;49.556;10.956;2023-02-28T00:51:43;5.22;;;3.05;;
20154;SDS011;10238;49.556;10.956;2023-02-28T00:54:31;4.40;;;2.97;;
20154;SDS011;10238;49.556;10.956;2023-02-28T00:57:19;4.25;;;2.80;;
20154;SDS011;10238;49.556;10.956;2023-02-28T01:00:08;3.65;;;3.03;;
20154;SDS011;10238;49.556;10.956;2023-02-28T01:02:58;3.50;;;3.00;;
20154;SDS011;10238;49.556;10.956;2023-02-28T01:05:46;4.97;;;3.38;;
20154;SDS011;10238;49.556;10.956;2023-02-28T01:08:34;4.20;;;3.08;;
20154;SDS011;10238;49.556;10.956;2023-02-28T01:11:22;4.05;;;3.20;;
20154;SDS011;10238;49.556;10.956;2023-02-28T01:14:11;4.07;;;2.78;;
20154;SDS011;10238;49.556;10.956;2023-02-28T01:16:59;4.88;;;3.38;;
20154;SDS011;10238;49.556;10.956;2023-02-28T01:19:48;4.97;;;3.25;;
20154;SDS011;10238;49.556;10.956;2023-02-28T01:22:39;4.53;;;3.13;;
20154;SDS011;10238;49.556;10.956;2023-02-28T01:25:27;6.65;;;3.30;;
20154;SDS011;10238;49.556;10.956;2023-02-28T01:28:15;4.68;;;2.90;;
20154;SDS011;10238;49.556;10.956;2023-02-28T01:31:03;3.65;;;3.10;;
20154;SDS011;10238;49.556;10.956;2023-02-28T01:33:52;4.25;;;2.70;;
20154;SDS011;10238;49.556;10.956;2023-02-28T01:36:41;5.70;;;2.60;;
20154;SDS011;10238;49.556;10.956;2023-02-28T01:39:29;5.32;;;2.83;;
20154;SDS011;10238;49.556;10.956;2023-02-28T01:42:17;3.75;;;2.60;;
20154;SDS011;10238;49.556;10.956;2023-02-28T01:45:16;5.15;;;3.22;;
20154;SDS011;10238;49.556;10.956;2023-02-28T01:48:08;4.95;;;2.92;;
20154;SDS011;10238;49.556;10.956;2023-02-28T01:50:58;4.10;;;2.90;;
20154;SDS011;10238;49.556;10.956;2023-02-28T01:53:53;4.82;;;3.03;;
20154;SDS011;10238;49.556;10.956;2023-02-28T01:56:47;6.28;;;3.75;;
20154;SDS011;10238;49.556;10.956;2023-02-28T02:02:31;6.05;;;3.50;;
20154;SDS011;10238;49.556;10.956;2023-02-28T02:05:20;5.70;;;3.25;;
20154;SDS011;10238;49.556;10.956;2023-02-28T02:08:09;4.45;;;3.10;;
20154;SDS011;10238;49.556;10.956;2023-02-28T02:11:01;6.32;;;3.70;;
20154;SDS011;10238;49.556;10.956;2023-02-28T02:13:53;5.22;;;3.75;;
20154;SDS011;10238;49.556;10.956;2023-02-28T02:17:04;5.25;;;3.72;;
20154;SDS011;10238;49.556;10.956;2023-02-28T02:23:52;4.03;;;2.80;;
20154;SDS011;10238;49.556;10.956;2023-02-28T02:27:10;5.85;;;3.65;;
20154;SDS011;10238;49.556;10.956;2023-02-28T02:30:18;4.35;;;3.28;;
20154;SDS011;10238;49.556;10.956;2023-02-28T02:33:39;4.97;;;3.25;;
20154;SDS011;10238;49.556;10.956;2023-02-28T02:36:53;5.32;;;3.40;;
20154;SDS011;10238;49.556;10.956;2023-02-28T02:39:51;8.07;;;3.80;;
20154;SDS011;10238;49.556;10.956;2023-02-28T02:42:47;5.45;;;3.53;;
20154;SDS011;10238;49.556;10.956;2023-02-28T02:45:41;4.82;;;3.53;;
20154;SDS011;10238;49.556;10.956;2023-02-28T02:48:34;5.60;;;2.97;;
20154;SDS011;10238;49.556;10.956;2023-02-28T02:51:28;5.10;;;3.70;;
20154;SDS011;10238;49.556;10.956;2023-02-28T02:54:21;5.30;;;3.20;;
20154;SDS011;10238;49.556;10.956;2023-02-28T02:57:15;5.30;;;4.25;;
20154;SDS011;10238;49.556;10.956;2023-02-28T03:00:08;6.03;;;3.60;;
20154;SDS011;10238;49.556;10.956;2023-02-28T03:02:58;6.40;;;4.22;;
20154;SDS011;10238;49.556;10.956;2023-02-28T03:05:48;5.68;;;3.85;;
20154;SDS011;10238;49.556;10.956;2023-02-28T03:08:37;4.45;;;3.20;;
20154;SDS011;10238;49.556;10.956;2023-02-28T03:11:27;7.05;;;4.00;;
20154;SDS011;10238;49.556;10.956;2023-02-28T03:14:23;6.20;;;3.30;;
20154;SDS011;10238;49.556;10.956;2023-02-28T03:17:24;5.90;;;3.97;;
20154;SDS011;10238;49.556;10.956;2023-02-28T03:20:34;4.97;;;3.42;;
20154;SDS011;10238;49.556;10.956;2023-02-28T03:23:28;5.78;;;3.60;;
20154;SDS011;10238;49.556;10.956;2023-02-28T03:26:25;8.15;;;4.45;;
20154;SDS011;10238;49.556;10.956;2023-02-28T03:29:17;4.75;;;3.38;;
20154;SDS011;10238;49.556;10.956;2023-02-28T03:32:11;4.80;;;3.78;;
20154;SDS011;10238;49.556;10.956;2023-02-28T03:35:08;6.50;;;4.40;;
20154;SDS011;10238;49.556;10.956;2023-02-28T03:38:08;5.75;;;3.47;;
20154;SDS011;10238;49.556;10.956;2023-02-28T03:41:02;4.95;;;4.10;;
20154;SDS011;10238;49.556;10.956;2023-02-28T03:43:58;8.68;;;4.43;;
20154;SDS011;10238;49.556;10.956;2023-02-28T03:46:53;5.88;;;3.80;;
20154;SDS011;10238;49.556;10.956;2023-02-28T03:49:46;6.47;;;3.53;;
20154;SDS011;10238;49.556;10.956;2023-02-28T03:52:40;7.40;;;4.72;;
20154;SDS011;10238;49.556;10.956;2023-02-28T03:55:34;9.02;;;4.10;;
20154;SDS011;10238;49.556;10.956;2023-02-28T03:58:27;4.65;;;3.67;;
20154;SDS011;10238;49.556;10.956;2023-02-28T04:01:21;6.43;;;4.30;;
20154;SDS011;10238;49.556;10.956;2023-02-28T04:04:14;5.38;;;3.85;;
20154;SDS011;10238;49.556;10.956;2023-02-28T04:07:06;6.75;;;3.88;;
20154;SDS011;10238;49.556;10.956;2023-02-28T04:09:55;6.10;;;3.85;;
20154;SDS011;10238;49.556;10.956;2023-02-28T04:12:43;7.55;;;4.35;;
20154;SDS011;10238;49.556;10.956;2023-02-28T04:15:31;5.68;;;4.18;;
20154;SDS011;10238;49.556;10.956;2023-02-28T04:18:20;7.20;;;4.32;;
20154;SDS011;10238;49.556;10.956;2023-02-28T04:21:08;5.45;;;3.97;;
20154;SDS011;10238;49.556;10.956;2023-02-28T04:23:56;6.97;;;4.28;;
20154;SDS011;10238;49.556;10.956;2023-02-28T04:26:46;6.30;;;3.72;;
20154;SDS011;10238;49.556;10.956;2023-02-28T04:29:35;5.70;;;3.95;;
20154;SDS011;10238;49.556;10.956;2023-02-28T04:32:23;7.28;;;3.78;;
20154;SDS011;10238;49.556;10.956;2023-02-28T04:35:13;5.97;;;4.22;;
20154;SDS011;10238;49.556;10.956;2023-02-28T04:38:01;8.52;;;4.40;;
20154;SDS011;10238;49.556;10.956;2023-02-28T04:40:49;7.53;;;5.00;;
20154;SDS011;10238;49.556;10.956;2023-02-28T04:43:37;6.63;;;4.43;;
20154;SDS011;10238;49.556;10.956;2023-02-28T04:46:25;9.52;;;4.97;;
20154;SDS011;10238;49.556;10.956;2023-02-28T04:49:13;11.25;;;4.78;;
20154;SDS011;10238;49.556;10.956;2023-02-28T04:52:02;5.00;;;3.63;;
20154;SDS011;10238;49.556;10.956;2023-02-28T04:54:53;8.15;;;4.88;;
20154;SDS011;10238;49.556;10.956;2023-02-28T04:57:41;10.60;;;4.32;;
20154;SDS011;10238;49.556;10.956;2023-02-28T05:00:29;5.90;;;3.95;;
20154;SDS011;10238;49.556;10.956;2023-02-28T05:03:17;8.07;;;4.57;;
20154;SDS011;10238;49.556;10.956;2023-02-28T05:06:06;7.68;;;3.95;;
20154;SDS011;10238;49.556;10.956;2023-02-28T05:08:56;7.38;;;4.35;;
20154;SDS011;10238;49.556;10.956;2023-02-28T05:11:44;6.15;;;4.30;;
20154;SDS011;10238;49.556;10.956;2023-02-28T05:14:32;6.97;;;4.03;;
20154;SDS011;10238;49.556;10.956;2023-02-28T05:17:20;7.30;;;4.60;;
20154;SDS011;10238;49.556;10.956;2023-02-28T05:20:08;10.07;;;4.88;;
20154;SDS011;10238;49.556;10.956;2023-02-28T05:23:00;9.30;;;4.32;;
20154;SDS011;10238;49.556;10.956;2023-02-28T05:25:50;6.05;;;3.97;;
20154;SDS011;10238;49.556;10.956;2023-02-28T05:28:38;6.45;;;3.90;;
20154;SDS011;10238;49.556;10.956;2023-02-28T05:31:26;6.88;;;3.78;;
20154;SDS011;10238;49.556;10.956;2023-02-28T05:34:14;8.25;;;4.20;;
20154;SDS011;10238;49.556;10.956;2023-02-28T05:37:02;7.65;;;4.40;;
20154;SDS011;10238;49.556;10.956;2023-02-28T05:39:50;5.90;;;3.88;;
20154;SDS011;10238;49.556;10.956;2023-02-28T05:42:39;7.18;;;5.03;;
20154;SDS011;10238;49.556;10.956;2023-02-28T05:45:28;6.30;;;4.68;;
20154;SDS011;10238;49.556;10.956;2023-02-28T05:48:16;6.20;;;4.80;;
20154;SDS011;10238;49.556;10.956;2023-02-28T05:51:04;8.85;;;4.03;;
20154;SDS011;10238;49.556;10.956;2023-02-28T05:53:52;5.88;;;4.43;;
20154;SDS011;10238;49.556;10.956;2023-02-28T05:56:40;7.93;;;5.03;;
20154;SDS011;10238;49.556;10.956;2023-02-28T05:59:31;6.78;;;4.70;;
20154;SDS011;10238;49.556;10.956;2023-02-28T06:02:18;10.95;;;6.00;;
20154;SDS011;10238;49.556;10.956;2023-02-28T06:05:07;7.85;;;4.35;;
20154;SDS011;10238;49.556;10.956;2023-02-28T06:08:00;7.72;;;4.53;;
20154;SDS011;10238;49.556;10.956;2023-02-28T06:10:48;11.52;;;5.65;;
20154;SDS011;10238;49.556;10.956;2023-02-28T06:13:36;9.02;;;4.90;;
20154;SDS011;10238;49.556;10.956;2023-02-28T06:16:25;8.32;;;5.13;;
20154;SDS011;10238;49.556;10.956;2023-02-28T06:19:14;10.13;;;5.68;;
20154;SDS011;10238;49.556;10.956;2023-02-28T06:22:02;9.57;;;5.50;;
20154;SDS011;10238;49.556;10.956;2023-02-28T06:24:50;7.50;;;4.80;;
20154;SDS011;10238;49.556;10.956;2023-02-28T06:27:38;8.88;;;4.78;;
20154;SDS011;10238;49.556;10.956;2023-02-28T06:30:26;11.40;;;5.72;;
20154;SDS011;10238;49.556;10.956;2023-02-28T06:33:17;8.68;;;5.75;;
20154;SDS011;10238;49.556;10.956;2023-02-28T06:36:06;8.88;;;4.88;;
20154;SDS011;10238;49.556;10.956;2023-02-28T06:38:55;8.00;;;5.10;;
20154;SDS011;10238;49.556;10.956;2023-02-28T06:41:43;13.70;;;7.63;;
20154;SDS011;10238;49.556;10.956;2023-02-28T06:44:40;9.30;;;5.93;;
20154;SDS011;10238;49.556;10.956;2023-02-28T06:47:30;9.45;;;5.63;;
20154;SDS011;10238;49.556;10.956;2023-02-28T06:50:19;11.88;;;6.15;;
20154;SDS011;10238;49.556;10.956;2023-02-28T06:53:08;11.00;;;6.32;;
20154;SDS011;10238;49.556;10.956;2023-02-28T06:55:55;9.15;;;5.38;;
20154;SDS011;10238;49.556;10.956;2023-02-28T06:58:46;11.15;;;5.70;;
20154;SDS011;10238;49.556;10.956;2023-02-28T07:01:34;11.20;;;6.32;;
20154;SDS011;10238;49.556;10.956;2023-02-28T07:04:23;8.77;;;6.07;;
20154;SDS011;10238;49.556;10.956;2023-02-28T07:07:12;11.73;;;7.05;;
20154;SDS011;10238;49.556;10.956;2023-02-28T07:10:00;13.75;;;6.70;;
20154;SDS011;10238;49.556;10.956;2023-02-28T07:12:48;14.85;;;6.68;;
20154;SDS011;10238;49.556;10.956;2023-02-28T07:15:36;9.60;;;6.03;;
20154;SDS011;10238;49.556;10.956;2023-02-28T07:18:28;9.80;;;6.35;;
20154;SDS011;10238;49.556;10.956;2023-02-28T07:21:17;9.63;;;5.63;;
20154;SDS011;10238;49.556;10.956;2023-02-28T07:24:06;11.00;;;6.28;;
20154;SDS011;10238;49.556;10.956;2023-02-28T07:26:55;14.40;;;7.18;;
20154;SDS011;10238;49.556;10.956;2023-02-28T07:29:44;10.40;;;5.60;;
20154;SDS011;10238;49.556;10.956;2023-02-28T07:32:33;10.10;;;6.25;;
20154;SDS011;10238;49.556;10.956;2023-02-28T07:35:24;10.82;;;6.20;;
20154;SDS011;10238;49.556;10.956;2023-02-28T07:38:12;10.73;;;6.40;;
20154;SDS011;10238;49.556;10.956;2023-02-28T07:41:01;10.80;;;6.10;;
20154;SDS011;10238;49.556;10.956;2023-02-28T07:43:52;9.38;;;5.82;;
20154;SDS011;10238;49.556;10.956;2023-02-28T07:46:41;10.98;;;6.10;;
20154;SDS011;10238;49.556;10.956;2023-02-28T07:49:29;9.45;;;6.55;;
20154;SDS011;10238;49.556;10.956;2023-02-28T07:52:17;14.05;;;7.28;;
20154;SDS011;10238;49.556;10.956;2023-02-28T07:55:06;10.05;;;5.70;;
20154;SDS011;10238;49.556;10.956;2023-02-28T07:57:56;10.55;;;6.57;;
20154;SDS011;10238;49.556;10.956;2023-02-28T08:00:44;11.82;;;6.45;;
20154;SDS011;10238;49.556;10.956;2023-02-28T08:03:32;11.48;;;7.00;;
20154;SDS011;10238;49.556;10.956;2023-02-28T08:06:21;13.43;;;6.57;;
20154;SDS011;10238;49.556;10.956;2023-02-28T08:09:11;12.13;;;7.53;;
20154;SDS011;10238;49.556;10.956;2023-02-28T08:12:00;9.32;;;5.90;;
20154;SDS011;10238;49.556;10.956;2023-02-28T08:14:49;10.52;;;6.45;;
20154;SDS011;10238;49.556;10.956;2023-02-28T08:17:37;10.23;;;7.00;;
20154;SDS011;10238;49.556;10.956;2023-02-28T08:20:25;12.63;;;8.02;;
20154;SDS011;10238;49.556;10.956;2023-02-28T08:23:13;12.25;;;6.90;;
20154;SDS011;10238;49.556;10.956;2023-02-28T08:26:01;10.77;;;6.97;;
20154;SDS011;10238;49.556;10.956;2023-02-28T08:28:50;10.18;;;6.60;;
20154;SDS011;10238;49.556;10.956;2023-02-28T08:31:42;12.75;;;7.50;;
20154;SDS011;10238;49.556;10.956;2023-02-28T08:34:30;13.60;;;7.18;;
20154;SDS011;10238;49.556;10.956;2023-02-28T08:37:18;10.57;;;6.85;;
20154;SDS011;10238;49.556;10.956;2023-02-28T08:40:07;11.55;;;6.60;;
20154;SDS011;10238;49.556;10.956;2023-02-28T08:42:55;9.23;;;6.20;;
20154;SDS011;10238;49.556;10.956;2023-02-28T08:45:43;14.38;;;7.30;;
20154;SDS011;10238;49.556;10.956;2023-02-28T08:48:34;11.95;;;7.03;;
20154;SDS011;10238;49.556;10.956;2023-02-28T08:51:23;13.52;;;7.38;;
20154;SDS011;10238;49.556;10.956;2023-02-28T08:54:13;14.85;;;7.88;;
20154;SDS011;10238;49.556;10.956;2023-02-28T08:57:04;12.07;;;6.97;;
20154;SDS011;10238;49.556;10.956;2023-02-28T08:59:55;11.90;;;7.35;;
20154;SDS011;10238;49.556;10.956;2023-02-28T09:02:43;12.48;;;7.35;;
20154;SDS011;10238;49.556;10.956;2023-02-28T09:05:32;10.50;;;6.93;;
20154;SDS011;10238;49.556;10.956;2023-02-28T09:08:20;10.60;;;7.10;;
20154;SDS011;10238;49.556;10.956;2023-02-28T09:11:08;10.88;;;6.72;;
20154;SDS011;10238;49.556;10.956;2023-02-28T09:13:57;11.18;;;6.50;;
20154;SDS011;10238;49.556;10.956;2023-02-28T09:16:50;14.30;;;7.47;;
20154;SDS011;10238;49.556;10.956;2023-02-28T09:19:38;9.98;;;6.72;;
20154;SDS011;10238;49.556;10.956;2023-02-28T09:22:27;10.10;;;6.78;;
20154;SDS011;10238;49.556;10.956;2023-02-28T09:25:15;11.77;;;7.38;;
20154;SDS011;10238;49.556;10.956;2023-02-28T09:28:03;14.25;;;8.50;;
20154;SDS011;10238;49.556;10.956;2023-02-28T09:30:52;12.75;;;7.07;;
20154;SDS011;10238;49.556;10.956;2023-02-28T09:33:43;10.60;;;6.97;;
20154;SDS011;10238;49.556;10.956;2023-02-28T09:36:31;12.80;;;7.35;;
20154;SDS011;10238;49.556;10.956;2023-02-28T09:39:31;10.15;;;6.80;;
20154;SDS011;10238;49.556;10.956;2023-02-28T09:42:21;11.02;;;6.80;;
20154;SDS011;10238;49.556;10.956;2023-02-28T09:48:07;10.82;;;6.63;;
20154;SDS011;10238;49.556;10.956;2023-02-28T09:51:02;9.20;;;6.13;;
20154;SDS011;10238;49.556;10.956;2023-02-28T09:53:51;12.77;;;7.28;;
20154;SDS011;10238;49.556;10.956;2023-02-28T09:56:49;12.80;;;7.55;;
20154;SDS011;10238;49.556;10.956;2023-02-28T09:59:42;8.70;;;6.70;;
20154;SDS011;10238;49.556;10.956;2023-02-28T10:02:41;12.18;;;6.60;;
20154;SDS011;10238;49.556;10.956;2023-02-28T10:05:38;11.63;;;6.57;;
20154;SDS011;10238;49.556;10.956;2023-02-28T10:08:30;13.55;;;6.88;;
20154;SDS011;10238;49.556;10.956;2023-02-28T10:11:28;10.18;;;6.35;;
20154;SDS011;10238;49.556;10.956;2023-02-28T10:14:21;12.18;;;6.57;;
20154;SDS011;10238;49.556;10.956;2023-02-28T10:17:12;7.68;;;5.80;;
20154;SDS011;10238;49.556;10.956;2023-02-28T10:20:04;10.02;;;6.22;;
20154;SDS011;10238;49.556;10.956;2023-02-28T10:23:00;9.60;;;6.05;;
20154;SDS011;10238;49.556;10.956;2023-02-28T10:25:57;10.95;;;6.53;;
20154;SDS011;10238;49.556;10.956;2023-02-28T10:28:47;10.98;;;6.80;;
20154;SDS011;10238;49.556;10.956;2023-02-28T10:31:36;11.18;;;6.70;;
20154;SDS011;10238;49.556;10.956;2023-02-28T10:34:26;9.57;;;6.57;;
20154;SDS011;10238;49.556;10.956;2023-02-28T10:37:14;8.00;;;6.10;;
20154;SDS011;10238;49.556;10.956;2023-02-28T10:40:02;8.82;;;6.72;;
20154;SDS011;10238;49.556;10.956;2023-02-28T10:42:57;10.80;;;7.20;;
20154;SDS011;10238;49.556;10.956;2023-02-28T10:45:52;9.55;;;6.18;;
20154;SDS011;10238;49.556;10.956;2023-02-28T10:48:50;7.38;;;5.90;;
20154;SDS011;10238;49.556;10.956;2023-02-28T10:51:49;8.60;;;5.97;;
20154;SDS011;10238;49.556;10.956;2023-02-28T10:54:39;13.18;;;6.93;;
20154;SDS011;10238;49.556;10.956;2023-02-28T10:57:27;8.93;;;6.88;;
20154;SDS011;10238;49.556;10.956;2023-02-28T11:00:18;7.55;;;6.15;;
20154;SDS011;10238;49.556;10.956;2023-02-28T11:03:13;7.82;;;6.40;;
20154;SDS011;10238;49.556;10.956;2023-02-28T11:06:17;7.15;;;5.75;;
20154;SDS011;10238;49.556;10.956;2023-02-28T11:09:14;11.75;;;6.32;;
20154;SDS011;10238;49.556;10.956;2023-02-28T11:12:10;9.27;;;6.15;;
20154;SDS011;10238;49.556;10.956;2023-02-28T11:15:21;7.07;;;5.55;;
20154;SDS011;10238;49.556;10.956;2023-02-28T11:18:19;7.85;;;5.63;;
20154;SDS011;10238;49.556;10.956;2023-02-28T11:21:15;10.52;;;6.25;;
20154;SDS011;10238;49.556;10.956;2023-02-28T11:24:12;10.90;;;6.22;;
20154;SDS011;10238;49.556;10.956;2023-02-28T11:27:14;6.40;;;5.75;;
20154;SDS011;10238;49.556;10.956;2023-02-28T11:30:23;8.90;;;5.80;;
20154;SDS011;10238;49.556;10.956;2023-02-28T11:33:24;9.35;;;6.22;;
20154;SDS011;10238;49.556;10.956;2023-02-28T11:36:16;6.43;;;5.05;;
20154;SDS011;10238;49.556;10.956;2023-02-28T11:39:09;8.05;;;5.78;;
20154;SDS011;10238;49.556;10.956;2023-02-28T11:45:12;7.47;;;5.20;;
20154;SDS011;10238;49.556;10.956;2023-02-28T11:48:12;6.50;;;5.40;;
20154;SDS011;10238;49.556;10.956;2023-02-28T11:51:08;7.97;;;6.03;;
20154;SDS011;10238;49.556;10.956;2023-02-28T11:57:29;7.57;;;6.82;;
20154;SDS011;10238;49.556;10.956;2023-02-28T12:00:33;9.13;;;6.32;;
20154;SDS011;10238;49.556;10.956;2023-02-28T12:03:28;9.05;;;6.95;;
20154;SDS011;10238;49.556;10.956;2023-02-28T12:06:25;8.70;;;6.85;;
20154;SDS011;10238;49.556;10.956;2023-02-28T12:09:32;6.45;;;5.45;;
20154;SDS011;10238;49.556;10.956;2023-02-28T12:12:31;6.03;;;5.13;;
20154;SDS011;10238;49.556;10.956;2023-02-28T12:15:44;7.97;;;5.68;;
20154;SDS011;10238;49.556;10.956;2023-02-28T12:18:51;8.77;;;5.10;;
20154;SDS011;10238;49.556;10.956;2023-02-28T12:21:52;6.38;;;4.65;;
20154;SDS011;10238;49.556;10.956;2023-02-28T12:25:06;8.50;;;5.13;;
20154;SDS011;10238;49.556;10.956;2023-02-28T12:28:16;5.40;;;4.57;;
20154;SDS011;10238;49.556;10.956;2023-02-28T12:31:11;7.55;;;4.85;;
20154;SDS011;10238;49.556;10.956;2023-02-28T12:34:05;8.15;;;6.25;;
20154;SDS011;10238;49.556;10.956;2023-02-28T12:36:58;7.10;;;4.25;;
20154;SDS011;10238;49.556;10.956;2023-02-28T12:39:54;6.22;;;4.90;;
20154;SDS011;10238;49.556;10.956;2023-02-28T12:42:51;10.05;;;4.88;;
20154;SDS011;10238;49.556;10.956;2023-02-28T12:45:43;9.77;;;6.72;;
20154;SDS011;10238;49.556;10.956;2023-02-28T12:55:14;5.22;;;4.72;;
20154;SDS011;10238;49.556;10.956;2023-02-28T12:58:13;7.88;;;5.68;;
20154;SDS011;10238;49.556;10.956;2023-02-28T13:04:38;6.72;;;5.47;;
20154;SDS011;10238;49.556;10.956;2023-02-28T13:07:44;9.77;;;6.70;;
20154;SDS011;10238;49.556;10.956;2023-02-28T13:10:51;6.57;;;5.95;;
20154;SDS011;10238;49.556;10.956;2023-02-28T13:13:42;7.65;;;6.70;;
20154;SDS011;10238;49.556;10.956;2023-02-28T13:16:49;7.50;;;6.35;;
20154;SDS011;10238;49.556;10.956;2023-02-28T13:19:44;8.18;;;7.38;;
20154;SDS011;10238;49.556;10.956;2023-02-28T13:22:43;8.27;;;6.38;;
20154;SDS011;10238;49.556;10.956;2023-02-28T13:38:34;10.05;;;7.00;;
20154;SDS011;10238;49.556;10.956;2023-02-28T13:41:46;9.07;;;6.22;;
20154;SDS011;10238;49.556;10.956;2023-02-28T13:44:45;7.30;;;6.22;;
20154;SDS011;10238;49.556;10.956;2023-02-28T13:48:18;9.50;;;6.78;;
20154;SDS011;10238;49.556;10.956;2023-02-28T13:51:27;8.02;;;7.05;;
20154;SDS011;10238;49.556;10.956;2023-02-28T13:54:29;7.68;;;6.07;;
20154;SDS011;10238;49.556;10.956;2023-02-28T13:57:29;9.32;;;6.68;;
20154;SDS011;10238;49.556;10.956;2023-02-28T14:00:30;9.00;;;6.75;;
20154;SDS011;10238;49.556;10.956;2023-02-28T14:03:44;6.45;;;5.47;;
20154;SDS011;10238;49.556;10.956;2023-02-28T14:06:48;6.47;;;5.88;;
20154;SDS011;10238;49.556;10.956;2023-02-28T14:09:39;8.18;;;6.13;;
20154;SDS011;10238;49.556;10.956;2023-02-28T14:12:52;8.27;;;5.60;;
20154;SDS011;10238;49.556;10.956;2023-02-28T14:15:55;6.75;;;5.88;;
20154;SDS011;10238;49.556;10.956;2023-02-28T14:18:49;10.02;;;6.55;;
20154;SDS011;10238;49.556;10.956;2023-02-28T14:21:50;6.32;;;5.63;;
20154;SDS011;10238;49.556;10.956;2023-02-28T14:24:59;9.20;;;6.85;;
20154;SDS011;10238;49.556;10.956;2023-02-28T14:27:58;8.90;;;5.78;;
20154;SDS011;10238;49.556;10.956;2023-02-28T14:30:57;9.63;;;6.47;;
20154;SDS011;10238;49.556;10.956;2023-02-28T14:34:05;8.35;;;6.40;;
20154;SDS011;10238;49.556;10.956;2023-02-28T14:37:10;8.88;;;5.95;;
20154;SDS011;10238;49.556;10.956;2023-02-28T14:40:02;10.18;;;6.75;;
20154;SDS011;10238;49.556;10.956;2023-02-28T14:42:59;7.53;;;5.75;;
20154;SDS011;10238;49.556;10.956;2023-02-28T14:45:49;7.82;;;5.30;;
20154;SDS011;10238;49.556;10.956;2023-02-28T14:48:39;10.63;;;7.80;;
20154;SDS011;10238;49.556;10.956;2023-02-28T14:51:32;9.95;;;6.80;;
20154;SDS011;10238;49.556;10.956;2023-02-28T14:54:21;8.93;;;6.97;;
20154;SDS011;10238;49.556;10.956;2023-02-28T14:57:20;11.48;;;6.40;;
20154;SDS011;10238;49.556;10.956;2023-02-28T15:00:12;9.18;;;7.10;;
20154;SDS011;10238;49.556;10.956;2023-02-28T15:03:13;9.88;;;6.78;;
20154;SDS011;10238;49.556;10.956;2023-02-28T15:06:11;11.80;;;10.70;;
20154;SDS011;10238;49.556;10.956;2023-02-28T15:09:09;11.10;;;7.80;;
20154;SDS011;10238;49.556;10.956;2023-02-28T15:12:00;10.60;;;7.18;;
20154;SDS011;10238;49.556;10.956;2023-02-28T15:14:48;9.88;;;8.63;;
20154;SDS011;10238;49.556;10.956;2023-02-28T15:17:38;9.13;;;8.02;;
20154;SDS011;10238;49.556;10.956;2023-02-28T15:20:27;11.35;;;7.53;;
20154;SDS011;10238;49.556;10.956;2023-02-28T15:23:15;12.23;;;7.82;;
20154;SDS011;10238;49.556;10.956;2023-02-28T15:26:06;10.50;;;7.07;;
20154;SDS011;10238;49.556;10.956;2023-02-28T15:28:58;11.05;;;7.15;;
20154;SDS011;10238;49.556;10.956;2023-02-28T15:31:49;10.13;;;7.68;;
20154;SDS011;10238;49.556;10.956;2023-02-28T15:34:43;12.32;;;8.23;;
20154;SDS011;10238;49.556;10.956;2023-02-28T15:37:40;10.32;;;6.47;;
20154;SDS011;10238;49.556;10.956;2023-02-28T15:40:35;10.15;;;7.20;;
20154;SDS011;10238;49.556;10.956;2023-02-28T15:43:26;10.48;;;6.45;;
20154;SDS011;10238;49.556;10.956;2023-02-28T15:46:15;10.98;;;6.70;;
20154;SDS011;10238;49.556;10.956;2023-02-28T15:49:12;8.30;;;5.93;;
20154;SDS011;10238;49.556;10.956;2023-02-28T15:52:09;9.50;;;6.47;;
20154;SDS011;10238;49.556;10.956;2023-02-28T15:55:07;9.63;;;7.25;;
20154;SDS011;10238;49.556;10.956;2023-02-28T15:58:00;8.27;;;6.38;;
20154;SDS011;10238;49.556;10.956;2023-02-28T16:01:00;8.80;;;6.30;;
20154;SDS011;10238;49.556;10.956;2023-02-28T16:03:55;9.15;;;6.72;;
20154;SDS011;10238;49.556;10.956;2023-02-28T16:06:44;8.60;;;7.45;;
20154;SDS011;10238;49.556;10.956;2023-02-28T16:09:33;8.82;;;7.20;;
20154;SDS011;10238;49.556;10.956;2023-02-28T16:12:25;8.25;;;6.40;;
20154;SDS011;10238;49.556;10.956;2023-02-28T16:15:17;9.32;;;7.18;;
20154;SDS011;10238;49.556;10.956;2023-02-28T16:18:08;8.35;;;6.40;;
20154;SDS011;10238;49.556;10.956;2023-02-28T16:20:58;9.45;;;6.40;;
20154;SDS011;10238;49.556;10.956;2023-02-28T16:23:46;8.25;;;6.13;;
20154;SDS011;10238;49.556;10.956;2023-02-28T16:26:34;6.60;;;5.85;;
20154;SDS011;10238;49.556;10.956;2023-02-28T16:29:25;9.93;;;7.20;;
20154;SDS011;10238;49.556;10.956;2023-02-28T16:32:16;13.03;;;8.93;;
20154;SDS011;10238;49.556;10.956;2023-02-28T16:35:09;11.20;;;7.88;;
20154;SDS011;10238;49.556;10.956;2023-02-28T16:37:59;8.82;;;7.13;;
20154;SDS011;10238;49.556;10.956;2023-02-28T16:40:47;9.90;;;7.45;;
20154;SDS011;10238;49.556;10.956;2023-02-28T16:43:38;10.43;;;6.90;;
20154;SDS011;10238;49.556;10.956;2023-02-28T16:46:27;11.05;;;6.95;;
20154;SDS011;10238;49.556;10.956;2023-02-28T16:49:18;9.05;;;7.38;;
20154;SDS011;10238;49.556;10.956;2023-02-28T16:52:07;11.80;;;6.57;;
20154;SDS011;10238;49.556;10.956;2023-02-28T16:54:55;10.88;;;6.80;;
20154;SDS011;10238;49.556;10.956;2023-02-28T16:57:45;9.52;;;6.53;;
20154;SDS011;10238;49.556;10.956;2023-02-28T17:00:37;9.65;;;6.93;;
20154;SDS011;10238;49.556;10.956;2023-02-28T17:03:25;11.40;;;7.13;;
20154;SDS011;10238;49.556;10.956;2023-02-28T17:06:19;13.45;;;8.23;;
20154;SDS011;10238;49.556;10.956;2023-02-28T17:09:10;10.32;;;6.90;;
20154;SDS011;10238;49.556;10.956;2023-02-28T17:12:03;10.25;;;7.25;;
20154;SDS011;10238;49.556;10.956;2023-02-28T17:14:51;11.18;;;7.22;;
20154;SDS011;10238;49.556;10.956;2023-02-28T17:17:40;10.52;;;6.40;;
20154;SDS011;10238;49.556;10.956;2023-02-28T17:20:29;9.75;;;6.40;;
20154;SDS011;10238;49.556;10.956;2023-02-28T17:23:17;9.38;;;6.25;;
20154;SDS011;10238;49.556;10.956;2023-02-28T17:26:08;9.93;;;6.28;;
20154;SDS011;10238;49.556;10.956;2023-02-28T17:29:05;10.43;;;6.38;;
20154;SDS011;10238;49.556;10.956;2023-02-28T17:31:59;14.07;;;7.82;;
20154;SDS011;10238;49.556;10.956;2023-02-28T17:35:01;10.07;;;7.25;;
20154;SDS011;10238;49.556;10.956;2023-02-28T17:37:49;12.88;;;7.18;;
20154;SDS011;10238;49.556;10.956;2023-02-28T17:40:38;13.05;;;7.43;;